createdAt,value
2023-01-03T00:00:17.062Z,3.24
2023-01-03T00:02:43.726Z,3.17
2023-01-03T00:05:10.298Z,3.16
2023-01-03T00:07:36.968Z,3.12
2023-01-03T00:10:09.846Z,3.08
2023-01-03T00:12:37.561Z,3.09
2023-01-03T00:15:04.802Z,3.08
2023-01-03T00:17:31.524Z,3.01
2023-01-03T00:19:58.145Z,3.09
2023-01-03T00:22:24.792Z,3.13
2023-01-03T00:24:53.133Z,3.18
2023-01-03T00:27:19.863Z,3.20
2023-01-03T00:29:46.820Z,3.21
2023-01-03T00:32:13.726Z,3.22
2023-01-03T00:34:43.804Z,3.20
2023-01-03T00:37:10.535Z,3.20
2023-01-03T00:39:38.240Z,3.23
2023-01-03T00:42:04.852Z,3.22
2023-01-03T00:44:31.950Z,3.25
2023-01-03T00:46:58.570Z,3.22
2023-01-03T00:49:25.227Z,3.18
2023-01-03T00:51:53.854Z,3.20
2023-01-03T00:54:21.290Z,3.23
2023-01-03T00:56:49.369Z,3.23
2023-01-03T00:59:18.249Z,3.27
2023-01-03T01:01:53.251Z,3.28
2023-01-03T01:04:31.315Z,3.29
2023-01-03T01:07:00.675Z,3.28
2023-01-03T01:09:30.412Z,3.29
2023-01-03T01:11:57.113Z,3.33
2023-01-03T01:14:25.801Z,3.38
2023-01-03T01:16:55.229Z,3.30
2023-01-03T01:19:25.788Z,3.28
2023-01-03T01:21:53.506Z,3.30
2023-01-03T01:24:20.197Z,3.24
2023-01-03T01:26:47.333Z,3.22
2023-01-03T01:29:15.225Z,3.30
2023-01-03T01:31:42.587Z,3.14
2023-01-03T01:34:09.789Z,3.15
2023-01-03T01:36:37.813Z,3.16
2023-01-03T01:39:10.416Z,3.23
2023-01-03T01:41:56.670Z,3.17
2023-01-03T01:44:46.972Z,3.12
2023-01-03T01:47:28.594Z,3.06
2023-01-03T01:50:10.459Z,3.17
2023-01-03T01:52:39.765Z,3.13
2023-01-03T01:55:09.059Z,3.19
2023-01-03T01:57:36.958Z,3.08
2023-01-03T02:00:05.323Z,3.13
2023-01-03T02:02:32.133Z,3.12
2023-01-03T02:05:06.912Z,3.02
2023-01-03T02:07:34.223Z,3.08
2023-01-03T02:10:01.091Z,3.01
2023-01-03T02:12:49.751Z,3.06
2023-01-03T02:15:49.219Z,3.01
2023-01-03T02:18:24.985Z,2.99
2023-01-03T02:20:54.537Z,2.93
2023-01-03T02:23:24.002Z,2.96
2023-01-03T02:25:59.502Z,2.97
2023-01-03T02:28:41.009Z,2.86
2023-01-03T02:31:10.262Z,2.87
2023-01-03T02:33:57.707Z,2.86
2023-01-03T02:36:55.902Z,2.84
2023-01-03T02:39:40.765Z,2.93
2023-01-03T02:42:30.274Z,2.90
2023-01-03T02:45:11.176Z,2.87
2023-01-03T02:47:44.338Z,2.90
2023-01-03T02:50:12.218Z,2.96
2023-01-03T02:52:40.516Z,2.93
2023-01-03T02:55:15.177Z,2.99
2023-01-03T02:57:52.748Z,2.97
2023-01-03T03:00:24.764Z,3.02
2023-01-03T03:02:55.507Z,2.93
2023-01-03T03:05:25.324Z,2.94
2023-01-03T03:07:52.570Z,2.97
2023-01-03T03:10:38.372Z,2.97
2023-01-03T03:13:15.594Z,2.97
2023-01-03T03:16:06.089Z,2.97
2023-01-03T03:18:45.646Z,2.92
2023-01-03T03:21:31.363Z,2.90
2023-01-03T03:24:21.041Z,2.87
2023-01-03T03:26:49.351Z,2.90
2023-01-03T03:29:17.233Z,2.92
2023-01-03T03:31:45.617Z,2.92
2023-01-03T03:34:18.769Z,2.90
2023-01-03T03:36:51.884Z,2.91
2023-01-03T03:39:37.162Z,2.93
2023-01-03T03:42:49.331Z,2.92
2023-01-03T03:45:30.324Z,2.89
2023-01-03T03:48:04.836Z,2.92
2023-01-03T03:50:37.802Z,2.80
2023-01-03T03:53:07.399Z,2.83
2023-01-03T03:55:39.314Z,2.67
2023-01-03T03:58:09.082Z,2.77
2023-01-03T04:00:38.478Z,2.78
2023-01-03T04:03:06.323Z,2.80
2023-01-03T04:05:37.923Z,2.78
2023-01-03T04:08:04.935Z,2.80
2023-01-03T04:10:37.465Z,2.86
2023-01-03T04:13:05.098Z,2.92
2023-01-03T04:15:31.701Z,2.95
2023-01-03T04:17:58.300Z,2.90
2023-01-03T04:20:25.373Z,2.89
2023-01-03T04:22:51.943Z,2.94
2023-01-03T04:25:18.526Z,2.91
2023-01-03T04:27:45.076Z,2.90
2023-01-03T04:30:12.567Z,2.85
2023-01-03T04:32:39.616Z,2.91
2023-01-03T04:35:06.639Z,2.93
2023-01-03T04:37:33.265Z,2.80
2023-01-03T04:39:59.803Z,2.82
2023-01-03T04:42:45.122Z,2.82
2023-01-03T04:45:11.995Z,2.82
2023-01-03T04:47:38.584Z,2.86
2023-01-03T04:50:05.621Z,2.93
2023-01-03T04:52:32.269Z,3.00
2023-01-03T04:54:58.873Z,2.92
2023-01-03T04:57:25.431Z,2.92
2023-01-03T04:59:52.059Z,2.95
2023-01-03T05:02:18.717Z,2.85
2023-01-03T05:04:45.505Z,2.92
2023-01-03T05:07:12.089Z,2.97
2023-01-03T05:09:38.660Z,2.99
2023-01-03T05:12:05.526Z,2.95
2023-01-03T05:14:32.164Z,2.96
2023-01-03T05:16:58.796Z,2.98
2023-01-03T05:19:25.417Z,3.02
2023-01-03T05:22:20.869Z,3.06
2023-01-03T05:25:05.757Z,3.07
2023-01-03T05:27:32.534Z,3.08
2023-01-03T05:29:59.146Z,3.00
2023-01-03T05:32:25.787Z,3.00
2023-01-03T05:34:52.367Z,2.97
2023-01-03T05:37:18.949Z,3.00
2023-01-03T05:39:45.502Z,3.01
2023-01-03T05:42:12.049Z,3.05
2023-01-03T05:44:38.632Z,3.06
2023-01-03T05:47:05.632Z,3.04
2023-01-03T05:49:33.471Z,3.09
2023-01-03T05:52:00.055Z,3.12
2023-01-03T05:54:26.745Z,3.11
2023-01-03T05:56:53.429Z,3.13
2023-01-03T05:59:21.155Z,3.13
2023-01-03T06:01:47.854Z,3.20
2023-01-03T06:04:14.592Z,3.16
2023-01-03T06:06:41.163Z,3.19
2023-01-03T06:09:07.807Z,3.18
2023-01-03T06:11:34.365Z,3.16
2023-01-03T06:14:01.004Z,3.18
2023-01-03T06:16:46.239Z,3.22
2023-01-03T06:19:12.876Z,3.20
2023-01-03T06:21:41.492Z,3.14
2023-01-03T06:24:08.797Z,3.10
2023-01-03T06:26:36.031Z,3.10
2023-01-03T06:29:03.976Z,3.09
2023-01-03T06:31:30.658Z,3.10
2023-01-03T06:33:57.419Z,3.12
2023-01-03T06:36:26.019Z,3.07
2023-01-03T06:38:54.046Z,3.04
2023-01-03T06:41:21.000Z,3.07
2023-01-03T06:43:47.590Z,2.91
2023-01-03T06:46:32.825Z,2.81
2023-01-03T06:49:18.129Z,2.78
2023-01-03T06:52:05.077Z,2.82
2023-01-03T06:54:33.780Z,2.83
2023-01-03T06:57:00.456Z,2.78
2023-01-03T06:59:27.285Z,2.83
2023-01-03T07:01:54.556Z,2.66
2023-01-03T07:04:23.095Z,2.67
2023-01-03T07:06:49.812Z,2.66
2023-01-03T07:09:16.701Z,2.71
2023-01-03T07:11:43.397Z,2.71
2023-01-03T07:14:11.514Z,2.74
2023-01-03T07:16:43.347Z,2.82
2023-01-03T07:19:13.402Z,2.84
2023-01-03T07:21:40.314Z,2.84
2023-01-03T07:24:08.229Z,2.86
2023-01-03T07:26:35.576Z,2.96
2023-01-03T07:29:04.379Z,3.08
2023-01-03T07:31:32.687Z,3.21
2023-01-03T07:34:00.009Z,3.23
2023-01-03T07:36:26.928Z,3.29
2023-01-03T07:38:54.079Z,3.35
2023-01-03T07:41:20.700Z,3.39
2023-01-03T07:43:48.870Z,3.45
2023-01-03T07:46:17.034Z,3.50
2023-01-03T07:48:45.212Z,3.57
2023-01-03T07:51:13.863Z,3.72
2023-01-03T07:53:40.779Z,3.78
2023-01-03T07:56:13.190Z,3.87
2023-01-03T07:58:41.540Z,3.94
2023-01-03T08:01:13.347Z,4.04
2023-01-03T08:03:40.703Z,4.19
2023-01-03T08:06:09.620Z,4.25
2023-01-03T08:08:36.779Z,4.29
2023-01-03T08:11:22.837Z,4.35
2023-01-03T08:13:50.191Z,4.43
2023-01-03T08:16:18.599Z,4.50
2023-01-03T08:18:45.713Z,4.60
2023-01-03T08:21:14.171Z,4.75
2023-01-03T08:23:41.469Z,4.90
2023-01-03T08:26:11.019Z,4.99
2023-01-03T08:28:38.123Z,5.07
2023-01-03T08:31:23.650Z,5.27
2023-01-03T08:34:00.635Z,5.46
2023-01-03T08:36:28.945Z,5.61
2023-01-03T08:39:03.005Z,5.71
2023-01-03T08:41:32.703Z,5.81
2023-01-03T08:44:00.921Z,5.91
2023-01-03T08:46:27.924Z,5.96
2023-01-03T08:48:55.147Z,6.02
2023-01-03T08:51:21.698Z,6.09
2023-01-03T08:53:48.344Z,6.28
2023-01-03T08:56:15.038Z,6.36
2023-01-03T08:58:41.582Z,6.48
2023-01-03T09:01:08.367Z,6.52
2023-01-03T09:03:35.261Z,6.60
2023-01-03T09:06:02.983Z,6.67
2023-01-03T09:08:35.320Z,6.68
2023-01-03T09:11:06.379Z,6.71
2023-01-03T09:13:33.208Z,6.78
2023-01-03T09:16:04.172Z,6.78
2023-01-03T09:18:30.896Z,6.80
2023-01-03T09:20:57.480Z,6.92
2023-01-03T09:23:24.049Z,6.97
2023-01-03T09:25:50.687Z,7.10
2023-01-03T09:28:17.284Z,7.23
2023-01-03T09:30:43.850Z,7.35
2023-01-03T09:33:10.713Z,7.48
2023-01-03T09:35:37.889Z,7.63
2023-01-03T09:38:05.132Z,7.73
2023-01-03T09:40:36.172Z,7.95
2023-01-03T09:43:13.235Z,8.10
2023-01-03T09:45:43.431Z,8.21
2023-01-03T09:48:16.521Z,8.29
2023-01-03T09:51:15.960Z,8.34
2023-01-03T09:53:57.958Z,8.39
2023-01-03T09:56:42.873Z,8.37
2023-01-03T09:59:33.620Z,8.33
2023-01-03T10:02:19.106Z,8.42
2023-01-03T10:05:05.323Z,8.51
2023-01-03T10:07:50.130Z,8.59
2023-01-03T10:10:28.823Z,8.72
2023-01-03T10:13:17.838Z,8.64
2023-01-03T10:16:07.723Z,8.79
2023-01-03T10:18:50.307Z,8.85
2023-01-03T10:21:25.765Z,8.89
2023-01-03T10:23:53.712Z,8.95
2023-01-03T10:26:20.316Z,9.06
2023-01-03T10:28:47.794Z,9.11
2023-01-03T10:31:41.747Z,9.24
2023-01-03T10:34:10.556Z,9.29
2023-01-03T10:36:37.124Z,9.34
2023-01-03T10:39:10.925Z,9.39
2023-01-03T10:41:47.457Z,9.40
2023-01-03T10:44:25.779Z,9.27
2023-01-03T10:46:54.827Z,9.21
2023-01-03T10:49:29.030Z,9.09
2023-01-03T10:52:11.959Z,9.12
2023-01-03T10:54:42.195Z,9.06
2023-01-03T10:57:38.242Z,9.01
2023-01-03T11:00:30.728Z,9.03
2023-01-03T11:03:12.544Z,9.10
2023-01-03T11:05:41.239Z,9.23
2023-01-03T11:08:19.792Z,9.43
2023-01-03T11:10:55.926Z,9.55
2023-01-03T11:13:34.512Z,9.67
2023-01-03T11:16:03.500Z,9.62
2023-01-03T11:18:30.884Z,9.54
2023-01-03T11:21:07.133Z,9.51
2023-01-03T11:24:07.912Z,9.60
2023-01-03T11:26:37.404Z,9.60
2023-01-03T11:29:14.514Z,9.68
2023-01-03T11:32:02.451Z,9.81
2023-01-03T11:35:24.076Z,9.89
2023-01-03T11:38:26.951Z,9.97
2023-01-03T11:41:19.782Z,9.96
2023-01-03T11:44:20.567Z,10.00
2023-01-03T11:47:05.480Z,9.96
2023-01-03T11:49:33.883Z,9.89
2023-01-03T11:52:19.773Z,9.91
2023-01-03T11:55:04.785Z,9.89
2023-01-03T11:57:56.379Z,9.88
2023-01-03T12:00:44.452Z,9.89
2023-01-03T12:03:25.257Z,9.94
2023-01-03T12:05:59.261Z,9.95
2023-01-03T12:08:46.623Z,9.97
2023-01-03T12:11:45.066Z,10.01
2023-01-03T12:14:17.346Z,10.11
2023-01-03T12:17:02.949Z,10.13
2023-01-03T12:19:35.252Z,10.18
2023-01-03T12:22:07.223Z,10.29
2023-01-03T12:25:02.511Z,10.35
2023-01-03T12:27:35.926Z,10.18
2023-01-03T12:30:07.918Z,10.19
2023-01-03T12:32:43.346Z,10.09
2023-01-03T12:35:44.396Z,10.00
2023-01-03T12:38:11.774Z,10.19
2023-01-03T12:40:50.525Z,10.16
2023-01-03T12:43:27.261Z,10.12
2023-01-03T12:45:56.271Z,10.17
2023-01-03T12:48:40.834Z,10.10
2023-01-03T12:51:07.826Z,10.09
2023-01-03T12:53:46.917Z,10.14
2023-01-03T12:56:13.826Z,10.11
2023-01-03T12:59:15.708Z,10.09
2023-01-03T13:01:59.160Z,10.09
2023-01-03T13:04:28.691Z,10.08
2023-01-03T13:07:11.021Z,10.15
2023-01-03T13:09:44.000Z,10.25
2023-01-03T13:12:15.782Z,10.36
2023-01-03T13:14:55.853Z,10.36
2023-01-03T13:17:25.408Z,10.35
2023-01-03T13:20:29.350Z,10.42
2023-01-03T13:22:57.194Z,10.44
2023-01-03T13:25:26.826Z,10.49
2023-01-03T13:27:55.600Z,10.47
2023-01-03T13:30:24.240Z,10.46
2023-01-03T13:33:13.393Z,10.50
2023-01-03T13:35:42.721Z,10.44
2023-01-03T13:38:25.483Z,10.38
2023-01-03T13:43:48.723Z,10.40
2023-01-03T13:46:31.768Z,10.35
2023-01-03T13:49:07.419Z,10.39
2023-01-03T13:51:40.980Z,10.34
2023-01-03T13:54:26.099Z,10.33
2023-01-03T13:56:52.830Z,10.33
2023-01-03T13:59:36.508Z,10.24
2023-01-03T14:02:12.265Z,10.29
2023-01-03T14:05:07.859Z,10.26
2023-01-03T14:08:13.511Z,10.28
2023-01-03T14:10:59.570Z,10.30
2023-01-03T14:13:50.364Z,10.18
2023-01-03T14:16:17.105Z,10.15
2023-01-03T14:18:56.424Z,10.11
2023-01-03T14:21:26.901Z,10.13
2023-01-03T14:24:00.291Z,10.11
2023-01-03T14:26:28.184Z,10.06
2023-01-03T14:28:55.916Z,10.05
2023-01-03T14:31:27.651Z,9.93
2023-01-03T14:34:01.639Z,9.86
2023-01-03T14:36:28.726Z,9.82
2023-01-03T14:39:00.321Z,9.77
2023-01-03T14:41:34.907Z,9.72
2023-01-03T14:44:04.207Z,9.62
2023-01-03T14:46:31.760Z,9.59
2023-01-03T14:49:03.547Z,9.55
2023-01-03T14:51:35.148Z,9.49
2023-01-03T14:54:03.468Z,9.37
2023-01-03T14:56:30.332Z,9.28
2023-01-03T14:58:57.912Z,9.23
2023-01-03T15:01:25.148Z,9.23
2023-01-03T15:03:52.623Z,9.19
2023-01-03T15:06:22.052Z,9.14
2023-01-03T15:08:51.661Z,9.07
2023-01-03T15:11:56.370Z,9.02
2023-01-03T15:14:24.378Z,8.93
2023-01-03T15:16:51.893Z,8.87
2023-01-03T15:19:27.795Z,8.83
2023-01-03T15:22:06.611Z,8.77
2023-01-03T15:24:43.308Z,8.71
2023-01-03T15:27:48.377Z,8.69
2023-01-03T15:30:23.278Z,8.57
2023-01-03T15:32:52.242Z,8.55
2023-01-03T15:35:22.745Z,8.51
2023-01-03T15:37:53.588Z,8.49
2023-01-03T15:40:20.499Z,8.45
2023-01-03T15:43:06.044Z,8.42
2023-01-03T15:45:39.590Z,8.40
2023-01-03T15:48:13.872Z,8.45
2023-01-03T15:50:47.955Z,8.53
2023-01-03T15:53:26.893Z,8.54
2023-01-03T15:56:06.358Z,8.45
2023-01-03T15:58:34.077Z,8.46
2023-01-03T16:01:00.967Z,8.46
2023-01-03T16:03:30.558Z,8.38
2023-01-03T16:05:57.366Z,8.35
2023-01-03T16:08:30.972Z,8.37
2023-01-03T16:10:59.496Z,8.35
2023-01-03T16:13:28.025Z,8.34
2023-01-03T16:15:55.029Z,8.29
2023-01-03T16:18:26.704Z,8.34
2023-01-03T16:20:55.412Z,8.30
2023-01-03T16:23:28.332Z,8.24
2023-01-03T16:25:55.344Z,8.28
2023-01-03T16:28:23.204Z,8.24
2023-01-03T16:31:14.014Z,8.22
2023-01-03T16:33:41.836Z,8.19
2023-01-03T16:36:39.294Z,8.20
2023-01-03T16:39:14.327Z,8.14
2023-01-03T16:41:40.990Z,8.18
2023-01-03T16:44:07.608Z,8.39
2023-01-03T16:46:35.537Z,8.17
2023-01-03T16:49:02.256Z,8.16
2023-01-03T16:51:31.421Z,8.10
2023-01-03T16:53:59.275Z,8.06
2023-01-03T16:56:26.673Z,8.05
2023-01-03T16:58:53.507Z,7.95
2023-01-03T17:01:20.535Z,7.94
2023-01-03T17:03:47.367Z,7.91
2023-01-03T17:06:38.102Z,7.89
2023-01-03T17:09:14.311Z,7.78
2023-01-03T17:11:41.065Z,7.83
2023-01-03T17:14:14.390Z,7.78
2023-01-03T17:16:40.972Z,7.72
2023-01-03T17:22:25.531Z,7.70
2023-01-03T17:24:52.319Z,7.70
2023-01-03T17:27:27.731Z,7.68
2023-01-03T17:30:00.615Z,7.66
2023-01-03T17:32:27.215Z,7.63
2023-01-03T17:34:53.796Z,7.59
2023-01-03T17:37:21.901Z,7.59
2023-01-03T17:39:53.348Z,7.56
2023-01-03T17:42:20.345Z,7.54
2023-01-03T17:45:06.802Z,7.52
2023-01-03T17:47:53.812Z,7.51
2023-01-03T17:50:20.384Z,7.51
2023-01-03T17:52:50.294Z,7.44
2023-01-03T17:55:23.577Z,7.43
2023-01-03T17:57:50.734Z,7.43
2023-01-03T18:00:23.362Z,7.42
2023-01-03T18:02:50.852Z,7.43
2023-01-03T18:05:26.566Z,7.40
2023-01-03T18:07:59.088Z,7.45
2023-01-03T18:10:40.245Z,7.49
2023-01-03T18:13:19.552Z,7.53
2023-01-03T18:15:46.186Z,7.48
2023-01-03T18:18:20.022Z,7.48
2023-01-03T18:20:47.134Z,7.45
2023-01-03T18:23:26.255Z,7.45
2023-01-03T18:25:53.009Z,7.41
2023-01-03T18:28:23.543Z,7.49
2023-01-03T18:30:50.163Z,7.44
2023-01-03T18:33:16.780Z,7.51
2023-01-03T18:35:43.735Z,7.45
2023-01-03T18:38:28.085Z,7.43
2023-01-03T18:41:00.654Z,7.42
2023-01-03T18:43:30.887Z,7.38
2023-01-03T18:45:57.574Z,7.40
2023-01-03T18:48:24.464Z,7.38
2023-01-03T18:50:57.969Z,7.44
2023-01-03T18:53:28.898Z,7.35
2023-01-03T18:55:55.584Z,7.33
2023-01-03T18:58:32.007Z,7.29
2023-01-03T19:00:58.793Z,7.32
2023-01-03T19:03:27.088Z,7.30
2023-01-03T19:05:57.017Z,7.29
2023-01-03T19:08:25.121Z,7.27
2023-01-03T19:10:52.047Z,7.26
2023-01-03T19:13:25.683Z,7.25
2023-01-03T19:15:52.630Z,7.26
2023-01-03T19:18:19.311Z,7.26
2023-01-03T19:20:46.887Z,7.30
2023-01-03T19:23:24.132Z,7.27
2023-01-03T19:25:50.972Z,7.29
2023-01-03T19:28:23.198Z,7.25
2023-01-03T19:30:50.027Z,7.29
2023-01-03T19:33:19.249Z,7.34
2023-01-03T19:35:46.066Z,7.43
2023-01-03T19:38:13.368Z,7.42
2023-01-03T19:40:41.320Z,7.47
2023-01-03T19:43:18.490Z,7.41
2023-01-03T19:45:45.122Z,7.44
2023-01-03T19:48:20.482Z,7.47
2023-01-03T19:50:47.286Z,7.50
2023-01-03T19:53:14.136Z,7.49
2023-01-03T19:55:43.321Z,7.52
2023-01-03T19:58:36.546Z,7.58
2023-01-03T20:01:03.758Z,7.57
2023-01-03T20:03:39.283Z,7.52
2023-01-03T20:06:08.740Z,7.56
2023-01-03T20:08:35.316Z,7.55
2023-01-03T20:11:02.188Z,7.56
2023-01-03T20:13:28.785Z,7.65
2023-01-03T20:16:00.250Z,7.75
2023-01-03T20:18:33.982Z,7.82
2023-01-03T20:21:05.255Z,7.97
2023-01-03T20:23:34.978Z,7.91
2023-01-03T20:26:01.909Z,7.89
2023-01-03T20:28:31.306Z,7.92
2023-01-03T20:30:59.261Z,7.73
2023-01-03T20:33:26.763Z,7.89
2023-01-03T20:36:11.113Z,7.64
2023-01-03T20:38:42.992Z,7.62
2023-01-03T20:41:12.238Z,7.84
2023-01-03T20:43:38.994Z,7.83
2023-01-03T20:46:05.666Z,8.08
2023-01-03T20:48:32.360Z,8.01
2023-01-03T20:50:58.969Z,8.03
2023-01-03T20:53:26.620Z,8.04
2023-01-03T20:55:53.892Z,7.91
2023-01-03T20:58:25.327Z,8.01
2023-01-03T21:00:56.709Z,8.09
2023-01-03T21:03:28.581Z,7.94
2023-01-03T21:05:56.175Z,7.94
2023-01-03T21:08:41.277Z,7.90
2023-01-03T21:11:07.860Z,7.94
2023-01-03T21:13:34.410Z,7.94
2023-01-03T21:16:01.136Z,8.06
2023-01-03T21:18:27.860Z,7.90
2023-01-03T21:20:54.468Z,7.84
2023-01-03T21:23:23.058Z,7.83
2023-01-03T21:25:50.706Z,7.92
2023-01-03T21:28:17.371Z,7.74
2023-01-03T21:30:44.033Z,7.84
2023-01-03T21:33:16.684Z,7.74
2023-01-03T21:35:43.360Z,7.63
2023-01-03T21:38:10.447Z,7.69
2023-01-03T21:40:37.072Z,7.69
2023-01-03T21:43:05.039Z,7.63
2023-01-03T21:45:35.187Z,7.57
2023-01-03T21:48:04.092Z,7.65
2023-01-03T21:50:31.174Z,7.52
2023-01-03T21:52:58.047Z,7.38
2023-01-03T21:55:24.823Z,7.25
2023-01-03T21:57:51.507Z,7.30
2023-01-03T22:00:18.905Z,7.25
2023-01-03T22:03:04.697Z,7.12
2023-01-03T22:05:31.921Z,7.08
2023-01-03T22:08:00.186Z,6.99
2023-01-03T22:10:27.375Z,6.84
2023-01-03T22:12:56.714Z,6.83
2023-01-03T22:15:24.625Z,6.71
2023-01-03T22:17:52.348Z,6.59
2023-01-03T22:20:20.716Z,6.51
2023-01-03T22:22:47.754Z,6.42
2023-01-03T22:25:16.745Z,6.33
2023-01-03T22:27:44.043Z,6.28
2023-01-03T22:30:14.030Z,6.18
2023-01-03T22:32:40.761Z,6.20
2023-01-03T22:35:07.883Z,6.17
2023-01-03T22:37:34.487Z,6.12
2023-01-03T22:40:01.053Z,6.02
2023-01-03T22:42:27.638Z,5.93
2023-01-03T22:44:54.244Z,5.86
2023-01-03T22:47:20.867Z,5.78
2023-01-03T22:49:47.612Z,5.78
2023-01-03T22:52:14.239Z,5.65
2023-01-03T22:54:41.606Z,5.70
2023-01-03T22:57:08.243Z,5.63
2023-01-03T22:59:34.829Z,5.53
2023-01-03T23:02:02.969Z,5.52
2023-01-03T23:04:29.718Z,5.51
2023-01-03T23:06:56.338Z,5.45
2023-01-03T23:09:23.759Z,5.42
2023-01-03T23:12:08.987Z,5.36
2023-01-03T23:14:35.606Z,5.35
2023-01-03T23:17:22.355Z,5.35
2023-01-03T23:19:49.137Z,5.45
2023-01-03T23:22:15.939Z,5.75
2023-01-03T23:24:42.517Z,5.67
2023-01-03T23:27:09.099Z,5.58
2023-01-03T23:29:35.728Z,5.62
2023-01-03T23:32:02.346Z,5.58
2023-01-03T23:34:28.920Z,5.54
2023-01-03T23:36:55.539Z,5.64
2023-01-03T23:39:22.175Z,5.95
2023-01-03T23:41:48.886Z,5.88
2023-01-03T23:44:15.582Z,5.78
2023-01-03T23:46:42.645Z,5.83
2023-01-03T23:49:11.511Z,5.80
2023-01-03T23:51:38.511Z,5.93
2023-01-03T23:54:05.184Z,5.98
2023-01-03T23:56:31.987Z,5.87
2023-01-03T23:58:58.662Z,5.84
